Bookmark and Share
Track history (hours):
 

Costa Luminosa

Last reported at 2014-Apr-24 05:33 UTC. Time now 2014-Apr-24 06:15 UTC.
Position N 42°48' E 004°38'.

Length 294 m; draft 8 m.

Type: Passenger vessel. MMSI: 247257900.

NotesDate/timePositionNaut miles runAvg speedWind from/ knotsBaromVisibWave heightAir tempDewpointWater temp
2014-Apr-24 05:33N 42°48' E 004°38'1313.2
2014-Apr-24 04:34N 42°38' E 004°26'1313.4
2014-Apr-24 03:33N 42°29' E 004°13'1313.2
2014-Apr-24 02:34N 42°20' E 004°00'1413.4
2014-Apr-24 01:33N 42°10' E 003°47'1313.3
2014-Apr-24 00:33N 42°01' E 003°35'1313.5
2014-Apr-23 23:33N 41°51' E 003°22'1312.9
2014-Apr-23 22:31N 41°43' E 003°07'1413.8
2014-Apr-23 21:33N 41°36' E 002°52'1313.3
2014-Apr-23 20:33N 41°28' E 002°38'1414.1
2014-Apr-23 19:33N 41°20' E 002°23'10 9.5
2014-Apr-23 18:33N 41°19' E 002°10'2 1.7
2014-Apr-23 17:26N 41°21' E 002°11'0 0.0
2014-Apr-23 14:31N 41°21' E 002°11'0 0.0
2014-Apr-23 13:24N 41°21' E 002°11'0 0.0
2014-Apr-23 12:21N 41°21' E 002°11'3 3.1
2014-Apr-23 11:30N 41°19' E 002°10'6 5.8
2014-Apr-23 10:33N 41°16' E 002°16'1313.0
2014-Apr-23 09:33N 41°22' E 002°32'1313.0
2014-Apr-23 08:33N 41°28' E 002°47'1413.8
2014-Apr-23 07:32N 41°34' E 003°04'1413.6
2014-Apr-23 06:33N 41°40' E 003°20'1514.9
2014-Apr-23 05:33N 41°47' E 003°37'1514.8
2014-Apr-23 04:33N 41°54' E 003°55'1716.5
2014-Apr-23 03:32N 42°02' E 004°15'1817.9
2014-Apr-23 02:33N 42°10' E 004°36'1817.8
2014-Apr-23 01:33N 42°18' E 004°57'1817.3
2014-Apr-23 00:32N 42°26' E 005°18'1716.6
2014-Apr-22 23:33N 42°34' E 005°38'1717.4
2014-Apr-22 22:33N 42°42' E 005°59'1717.5
2014-Apr-22 21:33N 42°50' E 006°20'1717.4
2014-Apr-22 20:34N 42°59' E 006°40'1919.3
2014-Apr-22 19:34N 43°11' E 007°01'2121.1
2014-Apr-22 18:33N 43°24' E 007°24'4321.4
2014-Apr-22 16:34N 43°50' E 008°10'2020.2
2014-Apr-22 15:34N 44°07' E 008°25'1211.6
2014-Apr-22 14:33N 44°19' E 008°29'0 0.0
2014-Apr-22 13:32N 44°19' E 008°29'0 0.0
2014-Apr-22 12:32N 44°19' E 008°29'0 0.0
2014-Apr-22 11:31N 44°19' E 008°29'0 0.0
2014-Apr-22 10:31N 44°19' E 008°29'0 0.0
2014-Apr-22 09:31N 44°19' E 008°29'0 0.0
2014-Apr-22 08:30N 44°19' E 008°29'0 0.0
2014-Apr-22 07:30N 44°19' E 008°29'0 0.0
2014-Apr-22 06:29N 44°19' E 008°29'3 2.9
2014-Apr-22 05:33N 44°17' E 008°32'1212.0
2014-Apr-22 04:32N 44°06' E 008°24'1313.3
2014-Apr-22 03:33N 43°55' E 008°14'3014.2
2014-Apr-22 01:28N 43°35' E 007°44'1416.0
2014-Apr-22 00:33N 43°26' E 007°28'1716.3
2014-Apr-21 23:32N 43°16' E 007°10'1616.1
2014-Apr-21 22:34N 43°07' E 006°53'1615.8
2014-Apr-21 21:34N 42°58' E 006°35'1615.5
2014-Apr-21 20:33N 42°56' E 006°14'1615.8
2014-Apr-21 19:34N 42°60' E 005°53'1616.2
2014-Apr-21 18:34N 43°05' E 005°32'1515.3
2014-Apr-21 17:34N 43°14' E 005°15'7 6.5
2014-Apr-21 16:29N 43°21' E 005°20'0 0.0
2014-Apr-21 15:32N 43°21' E 005°20'0 0.0
2014-Apr-21 14:31N 43°21' E 005°20'0 0.0
2014-Apr-21 13:03N 43°21' E 005°20'0 0.0
2014-Apr-21 12:33N 43°21' E 005°20'0 0.0
2014-Apr-21 11:33N 43°21' E 005°20'0 0.0
2014-Apr-21 10:32N 43°21' E 005°20'6 5.6
2014-Apr-21 09:34N 43°18' E 005°13'1212.2
2014-Apr-21 08:34N 43°07' E 005°07'1313.0
2014-Apr-21 07:34N 42°56' E 004°58'1313.4
2014-Apr-21 06:33N 42°44' E 004°48'1312.8
2014-Apr-21 05:33N 42°33' E 004°39'1313.4
2014-Apr-21 04:33N 42°22' E 004°30'1313.2
2014-Apr-21 03:33N 42°10' E 004°20'1413.7
2014-Apr-21 02:34N 41°59' E 004°11'1313.3
2014-Apr-21 01:33N 41°47' E 004°01'1313.2
2014-Apr-21 00:33N 41°36' E 003°52'1313.2
2014-Apr-20 23:33N 41°25' E 003°43'1312.9
2014-Apr-20 22:33N 41°14' E 003°34'1313.3
2014-Apr-20 21:33N 41°03' E 003°25'1312.9
2014-Apr-20 20:33N 40°51' E 003°16'1513.0
2014-Apr-20 19:25N 40°39' E 003°06'1112.7
2014-Apr-20 18:33N 40°30' E 002°58'1613.5
2014-Apr-20 17:24N 40°16' E 002°48'1113.5
2014-Apr-20 16:33N 40°06' E 002°40'1513.6
2014-Apr-20 15:28N 39°54' E 002°30'28 9.5
2014-Apr-20 12:31N 39°26' E 002°31'9 9.6
2014-Apr-20 11:33N 39°33' E 002°38'0 0.1
2014-Apr-20 07:32N 39°33' E 002°38'0 0.0
2014-Apr-20 06:22N 39°33' E 002°38'0 0.0
2014-Apr-20 05:33N 39°33' E 002°38'4 3.6
2014-Apr-20 04:23N 39°29' E 002°37'1113.7
2014-Apr-20 03:33N 39°23' E 002°25'10 9.5
2014-Apr-20 02:33N 39°16' E 002°16'9 8.8
2014-Apr-20 01:33N 39°12' E 002°06'1010.4
2014-Apr-20 00:33N 39°07' E 001°55'1010.4
2014-Apr-19 23:33N 39°00' E 001°44'1010.2
2014-Apr-19 22:33N 38°55' E 001°33'5 4.3
2014-Apr-19 21:27N 38°54' E 001°27'0 0.0
2014-Apr-19 06:16N 38°54' E 001°27'4 5.0
2014-Apr-19 05:33N 38°54' E 001°32'10 9.7
2014-Apr-19 04:33N 38°60' E 001°42'1313.4
2014-Apr-19 03:33N 39°13' E 001°44'1313.2
2014-Apr-19 02:34N 39°26' E 001°47'1312.9
2014-Apr-19 01:33N 39°39' E 001°50'1312.8
2014-Apr-19 00:33N 39°51' E 001°53'1312.8
2014-Apr-18 23:34N 40°04' E 001°55'1312.7
2014-Apr-18 22:33N 40°16' E 001°58'1212.2
2014-Apr-18 21:33N 40°29' E 002°00'1212.5
2014-Apr-18 20:34N 40°41' E 002°03'1312.9
2014-Apr-18 19:33N 40°54' E 002°06'1312.9
2014-Apr-18 18:33N 41°06' E 002°08'1312.9
2014-Apr-18 17:33N 41°19' E 002°10'2 1.6
2014-Apr-18 16:04N 41°21' E 002°11'0 0.0
2014-Apr-18 15:08N 41°21' E 002°11'0 0.0
2014-Apr-18 14:20N 41°21' E 002°11'0 0.0
2014-Apr-18 13:14N 41°21' E 002°11'0 0.0
2014-Apr-18 12:31N 41°21' E 002°11'0 0.0
2014-Apr-18 11:23N 41°21' E 002°11'5 6.6
2014-Apr-18 10:33N 41°16' E 002°12'1212.2
2014-Apr-18 09:33N 41°20' E 002°27'1616.2
2014-Apr-18 08:33N 41°27' E 002°46'1717.2
2014-Apr-18 07:33N 41°35' E 003°07'1717.0
2014-Apr-18 06:33N 41°43' E 003°27'1616.3
2014-Apr-18 05:33N 41°51' E 003°46'1817.8
2014-Apr-18 04:33N 41°59' E 004°07'1616.5
2014-Apr-18 03:33N 42°07' E 004°27'1817.6
2014-Apr-18 02:33N 42°15' E 004°48'1716.5
2014-Apr-18 01:33N 42°23' E 005°08'1616.5
2014-Apr-18 00:33N 42°30' E 005°28'1616.0
2014-Apr-17 23:33N 42°38' E 005°47'1817.9
2014-Apr-17 22:33N 42°46' E 006°08'1919.4
2014-Apr-17 21:34N 42°55' E 006°32'2019.5
2014-Apr-17 20:33N 43°06' E 006°53'1918.9
2014-Apr-17 19:34N 43°18' E 007°14'1919.0
2014-Apr-17 18:34N 43°30' E 007°34'1919.3
2014-Apr-17 17:34N 43°42' E 007°55'1919.2
2014-Apr-17 16:33N 43°55' E 008°15'1919.1
2014-Apr-17 15:34N 44°11' E 008°29'8 7.5
2014-Apr-17 14:34N 44°19' E 008°29'0 0.0
2014-Apr-17 13:33N 44°19' E 008°29'0 0.0
2014-Apr-17 12:32N 44°19' E 008°29'0 0.0
2014-Apr-17 11:29N 44°19' E 008°29'0 0.0
2014-Apr-17 10:16N 44°19' E 008°29'0 0.0
2014-Apr-17 09:31N 44°19' E 008°29'0 0.0
2014-Apr-17 08:31N 44°19' E 008°29'0 0.0
2014-Apr-17 07:33N 44°19' E 008°29'0 0.0
2014-Apr-17 06:17N 44°19' E 008°29'4 5.0
2014-Apr-17 05:24N 44°15' E 008°32'1011.7
2014-Apr-17 04:33N 44°06' E 008°24'1312.7
2014-Apr-17 03:33N 43°55' E 008°15'1413.0
2014-Apr-17 02:26N 43°45' E 008°01'1112.9
2014-Apr-17 01:33N 43°38' E 007°49'1312.6
2014-Apr-17 00:33N 43°30' E 007°35'1313.1
2014-Apr-16 23:33N 43°22' E 007°21'1615.1
2014-Apr-16 22:31N 43°12' E 007°05'1516.0
2014-Apr-16 21:34N 43°04' E 006°47'1515.1
2014-Apr-16 20:33N 42°56' E 006°29'1616.1
2014-Apr-16 19:34N 42°57' E 006°07'1615.6
2014-Apr-16 18:34N 43°01' E 005°47'1616.2
2014-Apr-16 17:34N 43°07' E 005°26'1313.1
2014-Apr-16 16:33N 43°17' E 005°15'5 4.9
2014-Apr-16 15:32N 43°21' E 005°20'0 0.0
2014-Apr-16 14:31N 43°21' E 005°20'0 0.0
2014-Apr-16 12:33N 43°21' E 005°20'0 0.0
2014-Apr-16 11:33N 43°21' E 005°20'0 0.0
2014-Apr-16 10:33N 43°21' E 005°20'0 0.0
2014-Apr-16 09:33N 43°21' E 005°20'6 5.6
2014-Apr-16 08:33N 43°18' E 005°13'1413.5
2014-Apr-16 07:34N 43°06' E 005°04'1615.3
2014-Apr-16 06:33N 42°55' E 004°49'7114.3
2014-Apr-16 01:32N 42°05' E 003°40'1211.5
2014-Apr-16 00:32N 41°56' E 003°31'1312.8
2014-Apr-15 23:33N 41°48' E 003°17'1313.0
2014-Apr-15 22:31N 41°41' E 003°02'1313.5
2014-Apr-15 21:33N 41°33' E 002°48'1413.5
2014-Apr-15 20:32N 41°25' E 002°33'1313.2
2014-Apr-15 19:32N 41°18' E 002°19'7 7.1
2014-Apr-15 18:33N 41°21' E 002°10'3 0.3
2014-Apr-15 09:33N 41°18' E 002°11'9 9.6
2014-Apr-15 08:34N 41°18' E 002°23'3718.2
2014-Apr-15 06:33N 41°35' E 003°07'9218.2
2014-Apr-15 01:29N 42°18' E 004°56'1819.6
2014-Apr-15 00:33N 42°26' E 005°18'1717.3
2014-Apr-14 23:34N 42°34' E 005°39'1717.2
2014-Apr-14 22:34N 42°42' E 005°59'1717.2
2014-Apr-14 21:34N 42°51' E 006°20'1717.4
2014-Apr-14 20:34N 43°02' E 006°38'3617.8
2014-Apr-14 18:32N 43°22' E 007°20'1818.1
2014-Apr-14 17:34N 43°32' E 007°39'5914.6
2014-Apr-14 13:32N 44°19' E 008°29'0 0.0
2014-Apr-14 11:31N 44°19' E 008°29'0 0.0
2014-Apr-14 10:31N 44°19' E 008°29'0 0.0
2014-Apr-14 09:30N 44°19' E 008°29'0 0.0
2014-Apr-14 08:30N 44°19' E 008°29'0 0.0
2014-Apr-14 07:33N 44°19' E 008°29'0 0.0
2014-Apr-14 06:30N 44°19' E 008°29'  

Dump ship's entire track history

sailing weather and tide predictions

Costa Luminosa — ICGU — position and weather